Weather at Spollens Airstrip

Public forecast

Using degrees Celsius for public forecast. Weather courtesy of forecast.io.

Closest aviation weather report (METAR) to Spollens Airstrip

Closest report is Casement Air Base, 38.7 nm (71.7 km) E. Retrieved 2022/07/01 15:30 UTC (19 minutes ago):

EIME 011530Z 21013KT 9999 FEW017 SCT030 BKN083 15/13 Q1011

Closest aviation forecast (TAF) to Spollens Airstrip

Closest forecast is Dublin Airport, 45.8 nm (84.9 km) E. Retrieved 2022/07/01 12:13 UTC (4 hours ago):

TAF EIDW 011100Z 0112/0212 22011KT 9999 FEW018 SCT028 PROB30 TEMPO 0114/0120 21015G25KT PROB40 TEMPO 0117/0120 -SHRA BKN014 PROB30 TEMPO 0118/0120 SHRA FEW016CB BECMG 0119/0121 25010KT PROB30 TEMPO 0210/0212 SHRA FEW018CB